createdAt,value
2022-11-27T00:00:27.560Z,101492.78
2022-11-27T00:03:12.568Z,101479.81
2022-11-27T00:05:58.592Z,101477.50
2022-11-27T00:08:44.603Z,101492.13
2022-11-27T00:11:31.069Z,101494.81
2022-11-27T00:14:17.424Z,101486.13
2022-11-27T00:17:02.381Z,101480.09
2022-11-27T00:19:47.412Z,101493.19
2022-11-27T00:22:32.820Z,101450.38
2022-11-27T00:25:17.972Z,101459.69
2022-11-27T00:28:03.131Z,101467.59
2022-11-27T00:30:48.324Z,101462.53
2022-11-27T00:33:33.490Z,101463.66
2022-11-27T00:36:18.583Z,101469.13
2022-11-27T00:39:03.884Z,101464.06
2022-11-27T00:41:48.916Z,101466.13
2022-11-27T00:44:34.433Z,101451.56
2022-11-27T00:47:19.331Z,101431.19
2022-11-27T00:50:04.790Z,101443.00
2022-11-27T00:52:50.045Z,101443.00
2022-11-27T00:55:35.164Z,101431.94
2022-11-27T00:58:20.329Z,101439.94
2022-11-27T01:01:07.341Z,101427.81
2022-11-27T01:03:52.373Z,101433.03
2022-11-27T01:06:37.628Z,101425.53
2022-11-27T01:09:22.958Z,101401.53
2022-11-27T01:12:08.340Z,101413.34
2022-11-27T01:14:53.465Z,101420.97
2022-11-27T01:17:38.469Z,101416.56
2022-11-27T01:20:23.726Z,101413.94
2022-11-27T01:23:09.005Z,101412.88
2022-11-27T01:25:54.357Z,101410.31
2022-11-27T01:28:40.045Z,101407.66
2022-11-27T01:31:28.837Z,101379.69
2022-11-27T01:34:16.697Z,101410.25
2022-11-27T01:37:01.922Z,101401.47
2022-11-27T01:39:46.754Z,101392.63
2022-11-27T01:42:31.844Z,101386.44
2022-11-27T01:45:19.312Z,101383.59
2022-11-27T01:48:04.775Z,101383.41
2022-11-27T01:50:49.890Z,101379.78
2022-11-27T01:53:35.002Z,101378.94
2022-11-27T01:56:21.944Z,101369.16
2022-11-27T01:59:07.981Z,101375.25
2022-11-27T02:01:53.013Z,101357.25
2022-11-27T02:04:38.483Z,101365.63
2022-11-27T02:07:24.066Z,101363.41
2022-11-27T02:10:09.883Z,101362.66
2022-11-27T02:13:09.315Z,101358.34
2022-11-27T02:16:11.780Z,101361.63
2022-11-27T02:19:25.401Z,101325.41
2022-11-27T02:22:32.659Z,101343.97
2022-11-27T02:25:28.469Z,101338.66
2022-11-27T02:28:35.310Z,101325.25
2022-11-27T02:31:38.596Z,101328.09
2022-11-27T02:34:36.174Z,101327.25
2022-11-27T02:37:24.333Z,101319.41
2022-11-27T02:40:27.618Z,101326.94
2022-11-27T02:43:19.245Z,101318.31
2022-11-27T02:46:08.017Z,101322.72
2022-11-27T02:48:56.918Z,101313.84
2022-11-27T02:51:46.143Z,101309.25
2022-11-27T02:54:31.296Z,101284.28
2022-11-27T02:57:17.544Z,101309.00
2022-11-27T03:00:03.745Z,101294.97
2022-11-27T03:03:00.991Z,101287.38
2022-11-27T03:05:49.711Z,101304.34
2022-11-27T03:08:54.923Z,101298.19
2022-11-27T03:11:40.356Z,101297.06
2022-11-27T03:14:25.728Z,101297.06
2022-11-27T03:17:22.703Z,101297.63
2022-11-27T03:20:22.489Z,101301.00
2022-11-27T03:23:07.778Z,101302.72
2022-11-27T03:25:53.082Z,101293.91
2022-11-27T03:28:38.780Z,101288.69
2022-11-27T03:31:24.846Z,101293.72
2022-11-27T03:34:10.456Z,101291.19
2022-11-27T03:36:55.667Z,101291.88
2022-11-27T03:39:41.419Z,101264.16
2022-11-27T03:42:40.408Z,101282.88
2022-11-27T03:46:01.200Z,101281.03
2022-11-27T03:49:05.055Z,101270.22
2022-11-27T03:52:03.426Z,101269.13
2022-11-27T03:55:10.015Z,101273.09
2022-11-27T03:58:00.784Z,101271.19
2022-11-27T04:00:48.820Z,101269.44
2022-11-27T04:03:33.820Z,101276.38
2022-11-27T04:06:19.173Z,101265.91
2022-11-27T04:09:05.141Z,101266.81
2022-11-27T04:11:50.254Z,101277.16
2022-11-27T04:14:35.166Z,101271.66
2022-11-27T04:17:20.218Z,101266.47
2022-11-27T04:20:06.858Z,101266.47
2022-11-27T04:22:52.030Z,101266.28
2022-11-27T04:25:37.366Z,101254.16
2022-11-27T04:28:22.684Z,101249.56
2022-11-27T04:31:07.839Z,101259.00
2022-11-27T04:33:52.959Z,101253.75
2022-11-27T04:36:39.657Z,101247.00
2022-11-27T04:39:24.856Z,101253.56
2022-11-27T04:42:10.346Z,101256.94
2022-11-27T04:44:55.558Z,101260.53
2022-11-27T04:47:40.898Z,101260.41
2022-11-27T04:50:26.083Z,101237.28
2022-11-27T04:53:11.449Z,101236.75
2022-11-27T04:55:56.836Z,101246.28
2022-11-27T04:58:41.973Z,101244.41
2022-11-27T05:01:27.190Z,101235.78
2022-11-27T05:04:12.033Z,101235.59
2022-11-27T05:06:57.280Z,101233.28
2022-11-27T05:09:42.134Z,101245.19
2022-11-27T05:12:27.444Z,101238.03
2022-11-27T05:15:12.635Z,101241.53
2022-11-27T05:17:57.880Z,101228.06
2022-11-27T05:20:43.231Z,101233.34
2022-11-27T05:23:28.780Z,101240.31
2022-11-27T05:26:13.837Z,101238.41
2022-11-27T05:28:58.555Z,101218.03
2022-11-27T05:31:44.295Z,101231.41
2022-11-27T05:34:30.116Z,101222.69
2022-11-27T05:37:19.478Z,101231.22
2022-11-27T05:40:06.464Z,101228.59
2022-11-27T05:42:51.734Z,101224.75
2022-11-27T05:45:37.845Z,101227.09
2022-11-27T05:48:23.093Z,101227.19
2022-11-27T05:51:08.398Z,101231.38
2022-11-27T05:53:53.355Z,101211.72
2022-11-27T05:56:38.533Z,101225.13
2022-11-27T05:59:24.007Z,101228.50
2022-11-27T06:02:09.066Z,101211.66
2022-11-27T06:04:54.105Z,101196.94
2022-11-27T06:07:39.244Z,101218.84
2022-11-27T06:10:24.487Z,101211.06
2022-11-27T06:13:09.562Z,101215.06
2022-11-27T06:15:55.230Z,101226.31
2022-11-27T06:18:40.411Z,101236.72
2022-11-27T06:21:25.752Z,101231.47
2022-11-27T06:24:10.893Z,101220.50
2022-11-27T06:26:55.839Z,101246.06
2022-11-27T06:29:40.797Z,101235.50
2022-11-27T06:32:25.885Z,101242.41
2022-11-27T06:35:11.182Z,101238.88
2022-11-27T06:37:56.306Z,101244.75
2022-11-27T06:40:41.301Z,101226.47
2022-11-27T06:43:26.511Z,101230.59
2022-11-27T06:46:15.505Z,101221.97
2022-11-27T06:49:00.951Z,101228.81
2022-11-27T06:51:46.021Z,101219.06
2022-11-27T06:54:30.957Z,101211.84
2022-11-27T06:57:16.419Z,101209.22
2022-11-27T07:00:01.614Z,101208.94
2022-11-27T07:02:46.863Z,101203.69
2022-11-27T07:05:31.862Z,101212.31
2022-11-27T07:08:17.688Z,101213.97
2022-11-27T07:11:13.868Z,101180.97
2022-11-27T07:14:01.519Z,101217.34
2022-11-27T07:16:46.432Z,101212.09
2022-11-27T07:19:31.661Z,101216.31
2022-11-27T07:22:16.812Z,101216.19
2022-11-27T07:25:01.859Z,101205.69
2022-11-27T07:27:47.172Z,101181.38
2022-11-27T07:30:32.043Z,101175.38
2022-11-27T07:33:16.986Z,101191.38
2022-11-27T07:36:07.988Z,101182.97
2022-11-27T07:38:53.424Z,101183.78
2022-11-27T07:41:38.303Z,101160.88
2022-11-27T07:44:23.296Z,101191.88
2022-11-27T07:47:08.481Z,101190.97
2022-11-27T07:49:55.115Z,101199.59
2022-11-27T07:52:42.245Z,101196.84
2022-11-27T07:55:27.705Z,101182.53
2022-11-27T07:58:12.834Z,101191.59
2022-11-27T08:00:58.220Z,101193.38
2022-11-27T08:03:44.305Z,101188.75
2022-11-27T08:06:29.334Z,101178.75
2022-11-27T08:09:14.651Z,101190.00
2022-11-27T08:11:59.428Z,101196.44
2022-11-27T08:14:44.573Z,101190.13
2022-11-27T08:17:30.107Z,101184.81
2022-11-27T08:20:15.443Z,101169.47
2022-11-27T08:23:02.908Z,101183.00
2022-11-27T08:25:48.601Z,101181.97
2022-11-27T08:28:34.016Z,101185.44
2022-11-27T08:31:20.767Z,101181.97
2022-11-27T08:34:05.950Z,101187.97
2022-11-27T08:36:51.262Z,101180.31
2022-11-27T08:39:36.261Z,101188.81
2022-11-27T08:42:21.351Z,101180.94
2022-11-27T08:45:06.763Z,101178.94
2022-11-27T08:47:51.797Z,101183.25
2022-11-27T08:50:37.694Z,101184.09
2022-11-27T08:53:23.132Z,101181.75
2022-11-27T08:56:11.714Z,101188.59
2022-11-27T08:58:57.376Z,101174.31
2022-11-27T09:01:42.374Z,101192.19
2022-11-27T09:04:28.822Z,101189.63
2022-11-27T09:07:17.523Z,101202.56
2022-11-27T09:10:02.699Z,101199.84
2022-11-27T09:12:49.430Z,101195.56
2022-11-27T09:15:34.773Z,101200.69
2022-11-27T09:18:19.704Z,101186.09
2022-11-27T09:21:07.720Z,101191.66
2022-11-27T09:23:55.137Z,101178.53
2022-11-27T09:26:40.469Z,101171.28
2022-11-27T09:29:25.654Z,101141.03
2022-11-27T09:32:10.721Z,101146.53
2022-11-27T09:34:56.029Z,101161.25
2022-11-27T09:37:41.058Z,101156.81
2022-11-27T09:40:26.215Z,101142.91
2022-11-27T09:43:12.293Z,101161.94
2022-11-27T09:46:03.863Z,101163.66
2022-11-27T09:48:51.663Z,101169.81
2022-11-27T09:51:47.738Z,101169.81
2022-11-27T09:54:52.592Z,101164.25
2022-11-27T09:57:41.703Z,101173.84
2022-11-27T10:00:26.814Z,101169.28
2022-11-27T10:03:18.651Z,101148.09
2022-11-27T10:06:21.219Z,101150.00
2022-11-27T10:09:09.217Z,101133.41
2022-11-27T10:12:00.427Z,101101.44
2022-11-27T10:15:10.584Z,101121.19
2022-11-27T10:18:03.367Z,101130.56
2022-11-27T10:20:56.480Z,101134.09
2022-11-27T10:23:48.027Z,101118.88
2022-11-27T10:26:40.278Z,101141.91
2022-11-27T10:29:47.211Z,101146.31
2022-11-27T10:35:42.746Z,101156.28
2022-11-27T10:38:35.263Z,101153.53
2022-11-27T10:41:53.403Z,101154.50
2022-11-27T10:44:44.172Z,101139.59
2022-11-27T10:47:33.739Z,101123.00
2022-11-27T10:50:20.256Z,101124.09
2022-11-27T10:53:12.153Z,101122.09
2022-11-27T10:56:12.510Z,101120.06
2022-11-27T10:59:04.429Z,101109.16
2022-11-27T11:01:53.345Z,101110.09
2022-11-27T11:04:39.120Z,101114.19
2022-11-27T11:07:29.401Z,101098.09
2022-11-27T11:10:26.628Z,101083.50
2022-11-27T11:13:11.466Z,101094.84
2022-11-27T11:16:04.132Z,101076.00
2022-11-27T11:18:53.593Z,101053.16
2022-11-27T11:21:41.165Z,101039.06
2022-11-27T11:24:35.963Z,101050.28
2022-11-27T11:27:30.503Z,101050.19
2022-11-27T11:30:28.641Z,101063.66
2022-11-27T11:33:14.110Z,101079.69
2022-11-27T11:36:08.445Z,101086.78
2022-11-27T11:38:54.070Z,101084.19
2022-11-27T11:41:39.718Z,101059.31
2022-11-27T11:44:37.087Z,101048.34
2022-11-27T11:47:25.093Z,101038.56
2022-11-27T11:50:13.579Z,101028.84
2022-11-27T11:53:04.752Z,101027.06
2022-11-27T11:55:52.844Z,101026.00
2022-11-27T11:58:58.406Z,101018.44
2022-11-27T12:01:56.500Z,101009.63
2022-11-27T12:05:17.242Z,101019.19
2022-11-27T12:08:05.007Z,101012.78
2022-11-27T12:10:53.320Z,101007.28
2022-11-27T12:13:38.840Z,101005.25
2022-11-27T12:16:36.870Z,101003.00
2022-11-27T12:19:34.843Z,100980.38
2022-11-27T12:22:42.075Z,100960.00
2022-11-27T12:25:36.046Z,100984.19
2022-11-27T12:28:42.360Z,100970.94
2022-11-27T12:31:30.318Z,100962.84
2022-11-27T12:34:39.303Z,100947.72
2022-11-27T12:37:52.638Z,100941.16
2022-11-27T12:40:56.680Z,100928.09
2022-11-27T12:43:47.771Z,100915.53
2022-11-27T12:47:04.766Z,100917.56
2022-11-27T12:50:03.357Z,100903.44
2022-11-27T12:52:58.426Z,100905.88
2022-11-27T12:55:56.104Z,100920.34
2022-11-27T12:58:46.864Z,100919.50
2022-11-27T13:01:42.871Z,100918.88
2022-11-27T13:04:37.115Z,100924.03
2022-11-27T13:07:27.983Z,100925.84
2022-11-27T13:10:36.189Z,100919.72
2022-11-27T13:13:39.546Z,100914.34
2022-11-27T13:16:38.536Z,100916.84
2022-11-27T13:19:35.498Z,100927.59
2022-11-27T13:22:27.633Z,100932.63
2022-11-27T13:25:17.379Z,100920.44
2022-11-27T13:28:05.577Z,100915.19
2022-11-27T13:30:53.325Z,100898.41
2022-11-27T13:33:44.793Z,100907.38
2022-11-27T13:36:41.853Z,100904.66
2022-11-27T13:39:34.654Z,100899.16
2022-11-27T13:42:22.360Z,100897.25
2022-11-27T13:45:12.052Z,100897.00
2022-11-27T13:47:59.786Z,100881.06
2022-11-27T13:50:45.821Z,100892.81
2022-11-27T13:53:42.411Z,100883.94
2022-11-27T13:56:33.760Z,100884.91
2022-11-27T13:59:24.323Z,100884.28
2022-11-27T14:02:09.505Z,100857.03
2022-11-27T14:04:56.662Z,100863.50
2022-11-27T14:07:46.554Z,100866.25
2022-11-27T14:10:33.037Z,100870.06
2022-11-27T14:13:22.371Z,100863.72
2022-11-27T14:16:39.605Z,100854.53
2022-11-27T14:19:47.431Z,100861.59
2022-11-27T14:23:09.833Z,100857.41
2022-11-27T14:26:02.520Z,100856.44
2022-11-27T14:28:58.190Z,100842.78
2022-11-27T14:31:43.651Z,100844.47
2022-11-27T14:34:33.645Z,100844.47
2022-11-27T14:37:26.246Z,100831.69
2022-11-27T14:40:29.672Z,100833.34
2022-11-27T14:43:27.704Z,100833.34
2022-11-27T14:46:21.925Z,100825.00
2022-11-27T14:49:15.990Z,100827.63
2022-11-27T14:52:05.584Z,100812.53
2022-11-27T14:54:51.270Z,100805.13
2022-11-27T14:57:36.776Z,100820.44
2022-11-27T15:00:30.123Z,100819.69
2022-11-27T15:03:18.188Z,100826.41
2022-11-27T15:06:07.488Z,100815.38
2022-11-27T15:09:15.875Z,100820.00
2022-11-27T15:12:00.714Z,100822.97
2022-11-27T15:14:56.815Z,100823.19
2022-11-27T15:17:48.144Z,100821.63
2022-11-27T15:20:45.037Z,100816.28
2022-11-27T15:23:33.973Z,100817.91
2022-11-27T15:26:39.693Z,100817.19
2022-11-27T15:29:36.783Z,100792.09
2022-11-27T15:32:24.827Z,100805.31
2022-11-27T15:35:15.369Z,100799.22
2022-11-27T15:38:10.035Z,100802.78
2022-11-27T15:41:00.805Z,100801.03
2022-11-27T15:43:45.972Z,100779.91
2022-11-27T15:46:35.042Z,100785.38
2022-11-27T15:49:20.457Z,100763.38
2022-11-27T15:52:05.386Z,100770.69
2022-11-27T15:54:51.224Z,100788.56
2022-11-27T15:57:36.799Z,100787.31
2022-11-27T16:00:22.251Z,100794.22
2022-11-27T16:03:07.608Z,100782.16
2022-11-27T16:05:52.884Z,100774.94
2022-11-27T16:08:38.079Z,100762.19
2022-11-27T16:11:23.573Z,100777.25
2022-11-27T16:14:09.027Z,100765.13
2022-11-27T16:16:54.377Z,100778.19
2022-11-27T16:19:39.553Z,100764.16
2022-11-27T16:22:24.837Z,100759.16
2022-11-27T16:25:09.984Z,100774.47
2022-11-27T16:28:00.944Z,100768.50
2022-11-27T16:30:47.660Z,100759.06
2022-11-27T16:33:33.013Z,100749.84
2022-11-27T16:36:20.455Z,100740.16
2022-11-27T16:39:05.754Z,100738.59
2022-11-27T16:41:50.778Z,100738.28
2022-11-27T16:44:35.852Z,100752.75
2022-11-27T16:47:21.124Z,100762.28
2022-11-27T16:50:06.865Z,100747.31
2022-11-27T16:52:54.550Z,100759.06
2022-11-27T16:55:40.000Z,100763.47
2022-11-27T16:58:25.077Z,100736.66
2022-11-27T17:01:13.659Z,100762.22
2022-11-27T17:03:59.623Z,100766.97
2022-11-27T17:06:45.782Z,100754.91
2022-11-27T17:09:31.274Z,100748.00
2022-11-27T17:12:16.574Z,100728.94
2022-11-27T17:15:01.656Z,100737.72
2022-11-27T17:17:46.574Z,100732.47
2022-11-27T17:20:31.492Z,100734.97
2022-11-27T17:23:16.834Z,100733.53
2022-11-27T17:26:10.074Z,100740.44
2022-11-27T17:28:56.337Z,100739.50
2022-11-27T17:31:41.977Z,100733.53
2022-11-27T17:34:27.270Z,100732.34
2022-11-27T17:37:13.358Z,100716.84
2022-11-27T17:39:58.487Z,100726.88
2022-11-27T17:42:43.398Z,100723.41
2022-11-27T17:45:28.817Z,100722.19
2022-11-27T17:48:13.980Z,100728.06
2022-11-27T17:51:00.435Z,100733.41
2022-11-27T17:53:46.029Z,100726.38
2022-11-27T17:56:31.938Z,100699.56
2022-11-27T17:59:18.807Z,100724.31
2022-11-27T18:02:03.792Z,100705.28
2022-11-27T18:04:48.973Z,100724.13
2022-11-27T18:07:34.037Z,100709.13
2022-11-27T18:10:19.484Z,100701.41
2022-11-27T18:13:04.636Z,100696.34
2022-11-27T18:15:49.865Z,100671.44
2022-11-27T18:18:36.168Z,100657.31
2022-11-27T18:21:22.846Z,100660.06
2022-11-27T18:24:22.967Z,100644.47
2022-11-27T18:27:09.892Z,100656.94
2022-11-27T18:29:55.004Z,100656.94
2022-11-27T18:32:40.137Z,100650.22
2022-11-27T18:35:25.657Z,100639.13
2022-11-27T18:38:10.896Z,100608.78
2022-11-27T18:40:56.822Z,100641.63
2022-11-27T18:43:42.756Z,100631.38
2022-11-27T18:46:27.793Z,100627.09
2022-11-27T18:49:12.968Z,100617.97
2022-11-27T18:51:58.248Z,100640.44
2022-11-27T18:54:44.291Z,100628.25
2022-11-27T18:57:29.195Z,100641.25
2022-11-27T19:00:14.883Z,100636.34
2022-11-27T19:03:00.314Z,100620.31
2022-11-27T19:05:45.459Z,100630.38
2022-11-27T19:08:31.191Z,100634.16
2022-11-27T19:11:19.591Z,100633.13
2022-11-27T19:14:05.917Z,100621.63
2022-11-27T19:16:51.090Z,100643.84
2022-11-27T19:22:41.163Z,100640.38
2022-11-27T19:25:26.543Z,100626.34
2022-11-27T19:28:12.151Z,100606.06
2022-11-27T19:30:57.404Z,100635.56
2022-11-27T19:33:42.868Z,100607.63
2022-11-27T19:36:29.621Z,100625.19
2022-11-27T19:39:15.474Z,100610.84
2022-11-27T19:42:00.323Z,100590.66
2022-11-27T19:44:45.724Z,100612.63
2022-11-27T19:47:31.062Z,100607.81
2022-11-27T19:50:16.618Z,100607.81
2022-11-27T19:53:04.214Z,100607.00
2022-11-27T19:55:55.854Z,100616.88
2022-11-27T19:58:41.235Z,100614.69
2022-11-27T20:01:26.903Z,100613.47
2022-11-27T20:04:15.236Z,100611.88
2022-11-27T20:07:00.473Z,100611.97
2022-11-27T20:09:45.606Z,100635.69
2022-11-27T20:12:36.114Z,100625.44
2022-11-27T20:15:21.151Z,100601.97
2022-11-27T20:18:06.268Z,100604.56
2022-11-27T20:20:51.519Z,100610.63
2022-11-27T20:23:36.674Z,100606.69
2022-11-27T20:26:24.753Z,100610.75
2022-11-27T20:29:11.341Z,100604.78
2022-11-27T20:31:56.651Z,100608.38
2022-11-27T20:34:41.843Z,100591.84
2022-11-27T20:37:28.152Z,100575.72
2022-11-27T20:40:13.542Z,100596.41
2022-11-27T20:42:59.564Z,100597.69
2022-11-27T20:45:44.950Z,100612.34
2022-11-27T20:48:30.917Z,100595.00
2022-11-27T20:51:19.420Z,100610.28
2022-11-27T20:54:04.715Z,100615.63
2022-11-27T20:56:51.227Z,100609.53
2022-11-27T20:59:36.127Z,100609.03
2022-11-27T21:02:21.454Z,100614.16
2022-11-27T21:05:07.733Z,100611.75
2022-11-27T21:07:52.997Z,100613.66
2022-11-27T21:10:38.341Z,100615.22
2022-11-27T21:13:23.594Z,100622.97
2022-11-27T21:16:14.376Z,100607.13
2022-11-27T21:19:02.422Z,100614.91
2022-11-27T21:21:48.123Z,100607.34
2022-11-27T21:24:33.498Z,100613.72
2022-11-27T21:27:18.685Z,100613.31
2022-11-27T21:30:05.553Z,100605.69
2022-11-27T21:32:50.575Z,100607.34
2022-11-27T21:35:39.158Z,100597.31
2022-11-27T21:38:25.225Z,100604.31
2022-11-27T21:41:13.994Z,100619.09
2022-11-27T21:44:01.653Z,100624.44
2022-11-27T21:46:47.068Z,100616.38
2022-11-27T21:49:32.374Z,100617.19
2022-11-27T21:52:17.341Z,100622.22
2022-11-27T21:55:04.661Z,100617.19
2022-11-27T21:57:52.189Z,100605.28
2022-11-27T22:00:37.847Z,100607.38
2022-11-27T22:03:22.867Z,100604.53
2022-11-27T22:06:14.654Z,100603.81
2022-11-27T22:08:59.617Z,100606.31
2022-11-27T22:11:46.168Z,100611.34
2022-11-27T22:14:31.626Z,100611.34
2022-11-27T22:17:17.811Z,100609.56
2022-11-27T22:20:03.669Z,100610.31
2022-11-27T22:22:48.524Z,100587.88
2022-11-27T22:25:33.391Z,100582.13
2022-11-27T22:28:18.737Z,100583.91
2022-11-27T22:31:15.499Z,100587.03
2022-11-27T22:34:01.308Z,100582.03
2022-11-27T22:36:46.543Z,100571.13
2022-11-27T22:39:32.315Z,100583.81
2022-11-27T22:42:17.277Z,100586.22
2022-11-27T22:45:02.587Z,100584.22
2022-11-27T22:47:47.830Z,100568.41
2022-11-27T22:50:32.775Z,100601.94
2022-11-27T22:53:18.032Z,100584.81
2022-11-27T22:56:06.160Z,100596.47
2022-11-27T22:58:55.221Z,100600.00
2022-11-27T23:01:51.446Z,100595.00
2022-11-27T23:04:37.681Z,100601.81
2022-11-27T23:07:25.366Z,100601.06
2022-11-27T23:10:11.365Z,100595.31
2022-11-27T23:12:56.550Z,100577.84
2022-11-27T23:15:42.839Z,100587.03
2022-11-27T23:18:28.192Z,100596.47
2022-11-27T23:21:19.399Z,100588.53
2022-11-27T23:24:05.420Z,100590.19
2022-11-27T23:26:50.635Z,100588.41
2022-11-27T23:29:35.779Z,100591.84
2022-11-27T23:32:21.182Z,100608.00
2022-11-27T23:35:06.697Z,100605.38
2022-11-27T23:37:51.774Z,100613.00
2022-11-27T23:40:36.883Z,100598.03
2022-11-27T23:43:22.594Z,100607.03
2022-11-27T23:46:11.030Z,100605.69
2022-11-27T23:48:58.217Z,100613.44
2022-11-27T23:51:43.281Z,100604.22
2022-11-27T23:54:28.674Z,100599.41
2022-11-27T23:57:13.776Z,100598.69
2022-11-27T23:59:59.126Z,100600.88
